sensor_id;sensor_type;location;lat;lon;timestamp;P1;durP1;ratioP1;P2;durP2;ratioP2
73893;SDS011;62699;50.534;12.784;2023-02-03T00:00:07;3.42;;;2.20;;
73893;SDS011;62699;50.534;12.784;2023-02-03T00:05:16;3.72;;;2.47;;
73893;SDS011;62699;50.534;12.784;2023-02-03T00:10:16;5.95;;;2.17;;
73893;SDS011;62699;50.534;12.784;2023-02-03T00:15:20;5.10;;;2.22;;
73893;SDS011;62699;50.534;12.784;2023-02-03T00:20:22;6.28;;;2.78;;
73893;SDS011;62699;50.534;12.784;2023-02-03T00:25:22;4.10;;;2.42;;
73893;SDS011;62699;50.534;12.784;2023-02-03T00:30:23;4.60;;;2.13;;
73893;SDS011;62699;50.534;12.784;2023-02-03T00:35:23;8.27;;;3.13;;
73893;SDS011;62699;50.534;12.784;2023-02-03T00:40:24;7.10;;;3.25;;
73893;SDS011;62699;50.534;12.784;2023-02-03T00:45:25;10.88;;;4.85;;
73893;SDS011;62699;50.534;12.784;2023-02-03T00:50:25;9.63;;;3.88;;
73893;SDS011;62699;50.534;12.784;2023-02-03T00:55:26;8.95;;;3.83;;
73893;SDS011;62699;50.534;12.784;2023-02-03T01:00:26;8.85;;;4.65;;
73893;SDS011;62699;50.534;12.784;2023-02-03T01:05:26;9.60;;;5.10;;
73893;SDS011;62699;50.534;12.784;2023-02-03T01:10:27;11.52;;;4.50;;
73893;SDS011;62699;50.534;12.784;2023-02-03T01:15:27;9.40;;;4.05;;
73893;SDS011;62699;50.534;12.784;2023-02-03T01:20:28;7.32;;;4.43;;
73893;SDS011;62699;50.534;12.784;2023-02-03T01:25:28;4.85;;;2.25;;
73893;SDS011;62699;50.534;12.784;2023-02-03T01:30:28;3.50;;;2.15;;
73893;SDS011;62699;50.534;12.784;2023-02-03T01:35:28;1.92;;;1.80;;
73893;SDS011;62699;50.534;12.784;2023-02-03T01:40:29;1.60;;;1.50;;
73893;SDS011;62699;50.534;12.784;2023-02-03T01:45:29;1.70;;;1.60;;
73893;SDS011;62699;50.534;12.784;2023-02-03T01:50:30;1.90;;;1.70;;
73893;SDS011;62699;50.534;12.784;2023-02-03T01:55:33;1.60;;;1.50;;
73893;SDS011;62699;50.534;12.784;2023-02-03T02:00:37;1.40;;;1.35;;
73893;SDS011;62699;50.534;12.784;2023-02-03T02:05:40;1.73;;;1.52;;
73893;SDS011;62699;50.534;12.784;2023-02-03T02:10:41;1.92;;;1.80;;
73893;SDS011;62699;50.534;12.784;2023-02-03T02:15:49;2.13;;;1.90;;
73893;SDS011;62699;50.534;12.784;2023-02-03T02:31:55;1.88;;;1.70;;
73893;SDS011;62699;50.534;12.784;2023-02-03T02:42:26;1.73;;;1.63;;
73893;SDS011;62699;50.534;12.784;2023-02-03T02:47:36;2.83;;;2.03;;
73893;SDS011;62699;50.534;12.784;2023-02-03T02:52:38;2.90;;;2.17;;
73893;SDS011;62699;50.534;12.784;2023-02-03T02:57:41;2.80;;;1.80;;
73893;SDS011;62699;50.534;12.784;2023-02-03T03:02:42;2.20;;;1.70;;
73893;SDS011;62699;50.534;12.784;2023-02-03T03:07:44;2.05;;;1.85;;
73893;SDS011;62699;50.534;12.784;2023-02-03T03:12:51;1.70;;;1.60;;
73893;SDS011;62699;50.534;12.784;2023-02-03T03:18:07;2.75;;;2.03;;
73893;SDS011;62699;50.534;12.784;2023-02-03T03:23:26;2.03;;;1.83;;
73893;SDS011;62699;50.534;12.784;2023-02-03T03:28:35;1.85;;;1.75;;
73893;SDS011;62699;50.534;12.784;2023-02-03T03:33:41;2.92;;;2.13;;
73893;SDS011;62699;50.534;12.784;2023-02-03T03:38:43;3.83;;;2.60;;
73893;SDS011;62699;50.534;12.784;2023-02-03T03:43:48;5.22;;;3.13;;
73893;SDS011;62699;50.534;12.784;2023-02-03T03:48:56;6.10;;;3.35;;
73893;SDS011;62699;50.534;12.784;2023-02-03T03:54:02;9.32;;;4.38;;
73893;SDS011;62699;50.534;12.784;2023-02-03T03:59:07;7.55;;;3.88;;
73893;SDS011;62699;50.534;12.784;2023-02-03T04:04:09;9.20;;;4.65;;
73893;SDS011;62699;50.534;12.784;2023-02-03T04:09:10;8.65;;;4.53;;
73893;SDS011;62699;50.534;12.784;2023-02-03T04:14:11;7.72;;;4.93;;
73893;SDS011;62699;50.534;12.784;2023-02-03T04:19:11;7.35;;;4.03;;
73893;SDS011;62699;50.534;12.784;2023-02-03T04:24:11;7.35;;;4.28;;
73893;SDS011;62699;50.534;12.784;2023-02-03T04:29:12;9.50;;;3.80;;
73893;SDS011;62699;50.534;12.784;2023-02-03T04:34:12;6.90;;;4.22;;
73893;SDS011;62699;50.534;12.784;2023-02-03T04:39:12;7.10;;;4.35;;
73893;SDS011;62699;50.534;12.784;2023-02-03T04:44:12;10.30;;;5.40;;
73893;SDS011;62699;50.534;12.784;2023-02-03T04:49:12;7.15;;;4.50;;
73893;SDS011;62699;50.534;12.784;2023-02-03T04:54:13;9.30;;;4.70;;
73893;SDS011;62699;50.534;12.784;2023-02-03T04:59:13;7.90;;;4.32;;
73893;SDS011;62699;50.534;12.784;2023-02-03T05:04:14;7.82;;;4.55;;
73893;SDS011;62699;50.534;12.784;2023-02-03T05:09:14;7.15;;;4.30;;
73893;SDS011;62699;50.534;12.784;2023-02-03T05:14:15;7.85;;;4.68;;
73893;SDS011;62699;50.534;12.784;2023-02-03T05:19:15;6.35;;;3.70;;
73893;SDS011;62699;50.534;12.784;2023-02-03T05:24:15;6.57;;;3.90;;
73893;SDS011;62699;50.534;12.784;2023-02-03T05:29:15;10.18;;;5.05;;
73893;SDS011;62699;50.534;12.784;2023-02-03T05:34:16;11.02;;;5.18;;
73893;SDS011;62699;50.534;12.784;2023-02-03T05:39:16;8.27;;;3.63;;
73893;SDS011;62699;50.534;12.784;2023-02-03T05:44:17;6.93;;;3.45;;
73893;SDS011;62699;50.534;12.784;2023-02-03T05:49:21;4.95;;;2.63;;
73893;SDS011;62699;50.534;12.784;2023-02-03T05:54:24;5.65;;;3.10;;
73893;SDS011;62699;50.534;12.784;2023-02-03T05:59:25;4.97;;;2.72;;
73893;SDS011;62699;50.534;12.784;2023-02-03T06:04:25;3.95;;;2.90;;
73893;SDS011;62699;50.534;12.784;2023-02-03T06:09:25;4.88;;;2.60;;
73893;SDS011;62699;50.534;12.784;2023-02-03T06:14:25;8.43;;;3.67;;
73893;SDS011;62699;50.534;12.784;2023-02-03T06:19:27;6.07;;;2.75;;
73893;SDS011;62699;50.534;12.784;2023-02-03T06:24:27;3.10;;;2.30;;
73893;SDS011;62699;50.534;12.784;2023-02-03T06:29:27;5.90;;;2.15;;
73893;SDS011;62699;50.534;12.784;2023-02-03T06:34:27;4.43;;;2.65;;
73893;SDS011;62699;50.534;12.784;2023-02-03T06:39:28;4.55;;;2.45;;
73893;SDS011;62699;50.534;12.784;2023-02-03T06:44:28;15.82;;;8.95;;
73893;SDS011;62699;50.534;12.784;2023-02-03T06:49:28;3.35;;;2.50;;
73893;SDS011;62699;50.534;12.784;2023-02-03T06:54:38;4.25;;;2.50;;
73893;SDS011;62699;50.534;12.784;2023-02-03T06:59:39;3.72;;;2.30;;
73893;SDS011;62699;50.534;12.784;2023-02-03T07:04:39;8.55;;;5.15;;
73893;SDS011;62699;50.534;12.784;2023-02-03T07:09:40;6.07;;;3.17;;
73893;SDS011;62699;50.534;12.784;2023-02-03T07:14:40;4.07;;;2.10;;
73893;SDS011;62699;50.534;12.784;2023-02-03T07:19:40;3.03;;;2.10;;
73893;SDS011;62699;50.534;12.784;2023-02-03T07:24:41;6.20;;;4.03;;
73893;SDS011;62699;50.534;12.784;2023-02-03T07:29:41;4.75;;;2.72;;
73893;SDS011;62699;50.534;12.784;2023-02-03T07:34:41;6.82;;;3.72;;
73893;SDS011;62699;50.534;12.784;2023-02-03T07:39:42;3.40;;;2.47;;
73893;SDS011;62699;50.534;12.784;2023-02-03T07:44:42;7.03;;;3.38;;
73893;SDS011;62699;50.534;12.784;2023-02-03T07:49:42;7.57;;;2.95;;
73893;SDS011;62699;50.534;12.784;2023-02-03T07:54:53;7.25;;;3.10;;
73893;SDS011;62699;50.534;12.784;2023-02-03T07:59:53;3.90;;;2.60;;
73893;SDS011;62699;50.534;12.784;2023-02-03T08:04:56;4.38;;;2.65;;
73893;SDS011;62699;50.534;12.784;2023-02-03T08:09:56;9.32;;;4.75;;
73893;SDS011;62699;50.534;12.784;2023-02-03T08:14:57;4.25;;;2.90;;
73893;SDS011;62699;50.534;12.784;2023-02-03T08:19:57;4.05;;;2.67;;
73893;SDS011;62699;50.534;12.784;2023-02-03T08:24:58;6.10;;;2.83;;
73893;SDS011;62699;50.534;12.784;2023-02-03T08:29:58;6.28;;;2.90;;
73893;SDS011;62699;50.534;12.784;2023-02-03T08:34:59;5.63;;;3.50;;
73893;SDS011;62699;50.534;12.784;2023-02-03T08:39:59;8.70;;;4.03;;
73893;SDS011;62699;50.534;12.784;2023-02-03T08:44:59;6.18;;;3.10;;
73893;SDS011;62699;50.534;12.784;2023-02-03T08:49:59;5.90;;;3.00;;
73893;SDS011;62699;50.534;12.784;2023-02-03T08:55:00;7.82;;;3.63;;
73893;SDS011;62699;50.534;12.784;2023-02-03T09:00:00;5.13;;;3.08;;
73893;SDS011;62699;50.534;12.784;2023-02-03T09:05:01;5.60;;;3.40;;
73893;SDS011;62699;50.534;12.784;2023-02-03T09:10:16;6.90;;;3.80;;
73893;SDS011;62699;50.534;12.784;2023-02-03T09:15:17;7.45;;;3.13;;
73893;SDS011;62699;50.534;12.784;2023-02-03T09:20:17;5.72;;;2.92;;
73893;SDS011;62699;50.534;12.784;2023-02-03T09:25:18;6.45;;;3.50;;
73893;SDS011;62699;50.534;12.784;2023-02-03T09:30:18;5.20;;;2.78;;
73893;SDS011;62699;50.534;12.784;2023-02-03T09:35:19;5.15;;;2.92;;
73893;SDS011;62699;50.534;12.784;2023-02-03T09:40:21;3.30;;;2.47;;
73893;SDS011;62699;50.534;12.784;2023-02-03T09:45:35;3.33;;;1.90;;
73893;SDS011;62699;50.534;12.784;2023-02-03T09:50:36;3.72;;;2.28;;
73893;SDS011;62699;50.534;12.784;2023-02-03T09:55:40;3.45;;;2.20;;
73893;SDS011;62699;50.534;12.784;2023-02-03T10:00:44;5.13;;;2.70;;
73893;SDS011;62699;50.534;12.784;2023-02-03T10:05:54;5.30;;;2.78;;
73893;SDS011;62699;50.534;12.784;2023-02-03T10:22:19;5.85;;;2.95;;
73893;SDS011;62699;50.534;12.784;2023-02-03T10:27:22;3.53;;;2.55;;
73893;SDS011;62699;50.534;12.784;2023-02-03T10:32:24;5.53;;;3.17;;
73893;SDS011;62699;50.534;12.784;2023-02-03T10:42:29;3.33;;;2.30;;
73893;SDS011;62699;50.534;12.784;2023-02-03T10:47:55;4.55;;;2.53;;
73893;SDS011;62699;50.534;12.784;2023-02-03T10:58:26;3.30;;;2.17;;
73893;SDS011;62699;50.534;12.784;2023-02-03T11:03:29;3.63;;;1.92;;
73893;SDS011;62699;50.534;12.784;2023-02-03T11:08:29;2.65;;;2.08;;
73893;SDS011;62699;50.534;12.784;2023-02-03T11:13:31;2.53;;;1.55;;
73893;SDS011;62699;50.534;12.784;2023-02-03T11:18:42;2.92;;;1.83;;
73893;SDS011;62699;50.534;12.784;2023-02-03T11:29:37;2.95;;;2.10;;
73893;SDS011;62699;50.534;12.784;2023-02-03T11:34:45;2.78;;;2.13;;
73893;SDS011;62699;50.534;12.784;2023-02-03T11:39:48;3.28;;;1.83;;
73893;SDS011;62699;50.534;12.784;2023-02-03T11:45:06;2.05;;;1.60;;
73893;SDS011;62699;50.534;12.784;2023-02-03T11:50:17;2.95;;;1.90;;
73893;SDS011;62699;50.534;12.784;2023-02-03T11:55:32;1.95;;;1.58;;
73893;SDS011;62699;50.534;12.784;2023-02-03T12:00:54;1.60;;;1.50;;
73893;SDS011;62699;50.534;12.784;2023-02-03T12:16:48;2.58;;;1.40;;
73893;SDS011;62699;50.534;12.784;2023-02-03T12:22:35;2.65;;;1.83;;
73893;SDS011;62699;50.534;12.784;2023-02-03T12:33:32;1.65;;;1.55;;
73893;SDS011;62699;50.534;12.784;2023-02-03T12:38:44;6.63;;;2.50;;
73893;SDS011;62699;50.534;12.784;2023-02-03T12:43:51;2.53;;;2.00;;
73893;SDS011;62699;50.534;12.784;2023-02-03T12:54:35;5.50;;;3.28;;
73893;SDS011;62699;50.534;12.784;2023-02-03T12:59:39;4.68;;;2.38;;
73893;SDS011;62699;50.534;12.784;2023-02-03T13:04:44;8.30;;;4.72;;
73893;SDS011;62699;50.534;12.784;2023-02-03T13:20:25;2.57;;;1.70;;
73893;SDS011;62699;50.534;12.784;2023-02-03T13:31:05;1.40;;;1.30;;
73893;SDS011;62699;50.534;12.784;2023-02-03T13:36:19;2.97;;;1.80;;
73893;SDS011;62699;50.534;12.784;2023-02-03T13:41:35;16.83;;;9.68;;
73893;SDS011;62699;50.534;12.784;2023-02-03T13:46:41;1.52;;;1.42;;
73893;SDS011;62699;50.534;12.784;2023-02-03T13:51:42;1.42;;;1.38;;
73893;SDS011;62699;50.534;12.784;2023-02-03T13:56:54;1.65;;;1.55;;
73893;SDS011;62699;50.534;12.784;2023-02-03T14:12:36;6.32;;;3.28;;
73893;SDS011;62699;50.534;12.784;2023-02-03T14:22:38;5.03;;;2.90;;
73893;SDS011;62699;50.534;12.784;2023-02-03T14:27:38;4.13;;;2.10;;
73893;SDS011;62699;50.534;12.784;2023-02-03T14:32:49;7.95;;;2.88;;
73893;SDS011;62699;50.534;12.784;2023-02-03T14:37:54;7.43;;;2.83;;
73893;SDS011;62699;50.534;12.784;2023-02-03T14:53:53;13.73;;;3.80;;
73893;SDS011;62699;50.534;12.784;2023-02-03T14:59:16;8.65;;;2.40;;
73893;SDS011;62699;50.534;12.784;2023-02-03T15:14:46;9.47;;;2.47;;
73893;SDS011;62699;50.534;12.784;2023-02-03T15:19:46;10.50;;;3.00;;
73893;SDS011;62699;50.534;12.784;2023-02-03T15:24:47;11.75;;;3.20;;
73893;SDS011;62699;50.534;12.784;2023-02-03T15:29:50;14.55;;;3.00;;
73893;SDS011;62699;50.534;12.784;2023-02-03T15:34:51;10.75;;;3.13;;
73893;SDS011;62699;50.534;12.784;2023-02-03T15:50:46;13.25;;;2.63;;
73893;SDS011;62699;50.534;12.784;2023-02-03T15:55:49;9.85;;;2.80;;
73893;SDS011;62699;50.534;12.784;2023-02-03T16:00:53;12.82;;;2.80;;
73893;SDS011;62699;50.534;12.784;2023-02-03T16:05:56;10.50;;;3.05;;
73893;SDS011;62699;50.534;12.784;2023-02-03T16:10:56;10.98;;;3.65;;
73893;SDS011;62699;50.534;12.784;2023-02-03T16:16:06;15.23;;;2.90;;
73893;SDS011;62699;50.534;12.784;2023-02-03T16:21:24;16.58;;;5.35;;
73893;SDS011;62699;50.534;12.784;2023-02-03T16:26:34;10.90;;;3.00;;
73893;SDS011;62699;50.534;12.784;2023-02-03T16:31:39;11.23;;;3.55;;
73893;SDS011;62699;50.534;12.784;2023-02-03T16:37:01;12.77;;;4.10;;
73893;SDS011;62699;50.534;12.784;2023-02-03T16:42:39;11.38;;;3.00;;
73893;SDS011;62699;50.534;12.784;2023-02-03T16:47:58;12.63;;;3.40;;
73893;SDS011;62699;50.534;12.784;2023-02-03T16:53:21;9.70;;;2.65;;
73893;SDS011;62699;50.534;12.784;2023-02-03T16:58:23;11.75;;;3.40;;
73893;SDS011;62699;50.534;12.784;2023-02-03T17:03:32;11.68;;;3.47;;
73893;SDS011;62699;50.534;12.784;2023-02-03T17:08:34;12.52;;;3.95;;
73893;SDS011;62699;50.534;12.784;2023-02-03T17:13:38;23.35;;;9.70;;
73893;SDS011;62699;50.534;12.784;2023-02-03T17:18:38;20.83;;;5.45;;
73893;SDS011;62699;50.534;12.784;2023-02-03T17:23:48;12.63;;;3.95;;
73893;SDS011;62699;50.534;12.784;2023-02-03T17:28:48;11.20;;;4.40;;
73893;SDS011;62699;50.534;12.784;2023-02-03T17:33:49;14.80;;;4.40;;
73893;SDS011;62699;50.534;12.784;2023-02-03T17:38:51;16.67;;;3.95;;
73893;SDS011;62699;50.534;12.784;2023-02-03T17:43:57;17.58;;;5.80;;
73893;SDS011;62699;50.534;12.784;2023-02-03T17:48:58;20.02;;;8.13;;
73893;SDS011;62699;50.534;12.784;2023-02-03T17:53:58;13.32;;;3.90;;
73893;SDS011;62699;50.534;12.784;2023-02-03T17:59:04;11.52;;;4.10;;
73893;SDS011;62699;50.534;12.784;2023-02-03T18:04:05;20.48;;;7.07;;
73893;SDS011;62699;50.534;12.784;2023-02-03T18:09:08;31.75;;;12.70;;
73893;SDS011;62699;50.534;12.784;2023-02-03T18:14:10;16.92;;;4.05;;
73893;SDS011;62699;50.534;12.784;2023-02-03T18:19:12;10.98;;;3.50;;
73893;SDS011;62699;50.534;12.784;2023-02-03T18:24:20;7.82;;;3.33;;
73893;SDS011;62699;50.534;12.784;2023-02-03T18:29:26;14.60;;;3.50;;
73893;SDS011;62699;50.534;12.784;2023-02-03T18:34:28;12.85;;;3.25;;
73893;SDS011;62699;50.534;12.784;2023-02-03T18:39:29;14.45;;;2.95;;
73893;SDS011;62699;50.534;12.784;2023-02-03T18:44:29;16.52;;;3.58;;
73893;SDS011;62699;50.534;12.784;2023-02-03T18:49:31;16.20;;;5.18;;
73893;SDS011;62699;50.534;12.784;2023-02-03T18:54:31;9.13;;;3.67;;
73893;SDS011;62699;50.534;12.784;2023-02-03T18:59:32;14.13;;;3.78;;
73893;SDS011;62699;50.534;12.784;2023-02-03T19:04:34;12.30;;;3.15;;
73893;SDS011;62699;50.534;12.784;2023-02-03T19:09:35;11.15;;;3.90;;
73893;SDS011;62699;50.534;12.784;2023-02-03T19:14:42;28.30;;;9.85;;
73893;SDS011;62699;50.534;12.784;2023-02-03T19:19:42;13.82;;;3.22;;
73893;SDS011;62699;50.534;12.784;2023-02-03T19:24:43;11.57;;;3.70;;
73893;SDS011;62699;50.534;12.784;2023-02-03T19:29:43;16.14;;;3.28;;
73893;SDS011;62699;50.534;12.784;2023-02-03T19:34:43;13.15;;;3.28;;
73893;SDS011;62699;50.534;12.784;2023-02-03T19:39:44;12.90;;;3.82;;
73893;SDS011;62699;50.534;12.784;2023-02-03T19:44:49;16.05;;;4.03;;
73893;SDS011;62699;50.534;12.784;2023-02-03T19:49:50;19.48;;;3.40;;
73893;SDS011;62699;50.534;12.784;2023-02-03T19:54:50;10.95;;;2.92;;
73893;SDS011;62699;50.534;12.784;2023-02-03T19:59:55;9.82;;;2.80;;
73893;SDS011;62699;50.534;12.784;2023-02-03T20:04:55;13.38;;;4.03;;
73893;SDS011;62699;50.534;12.784;2023-02-03T20:09:56;12.80;;;3.45;;
73893;SDS011;62699;50.534;12.784;2023-02-03T20:14:57;11.95;;;3.22;;
73893;SDS011;62699;50.534;12.784;2023-02-03T20:20:00;13.27;;;3.38;;
73893;SDS011;62699;50.534;12.784;2023-02-03T20:25:01;17.02;;;3.63;;
73893;SDS011;62699;50.534;12.784;2023-02-03T20:30:01;11.82;;;3.28;;
73893;SDS011;62699;50.534;12.784;2023-02-03T20:35:03;14.20;;;3.72;;
73893;SDS011;62699;50.534;12.784;2023-02-03T20:40:17;12.57;;;4.05;;
73893;SDS011;62699;50.534;12.784;2023-02-03T20:45:22;11.20;;;2.95;;
73893;SDS011;62699;50.534;12.784;2023-02-03T20:50:23;9.65;;;3.35;;
73893;SDS011;62699;50.534;12.784;2023-02-03T20:55:24;11.70;;;3.40;;
73893;SDS011;62699;50.534;12.784;2023-02-03T21:00:25;10.95;;;2.85;;
73893;SDS011;62699;50.534;12.784;2023-02-03T21:05:26;10.45;;;2.75;;
73893;SDS011;62699;50.534;12.784;2023-02-03T21:10:28;10.15;;;3.38;;
73893;SDS011;62699;50.534;12.784;2023-02-03T21:15:30;13.18;;;3.97;;
73893;SDS011;62699;50.534;12.784;2023-02-03T21:20:32;12.93;;;4.10;;
73893;SDS011;62699;50.534;12.784;2023-02-03T21:25:32;11.38;;;3.20;;
73893;SDS011;62699;50.534;12.784;2023-02-03T21:30:33;13.48;;;2.58;;
73893;SDS011;62699;50.534;12.784;2023-02-03T21:35:34;11.68;;;2.78;;
73893;SDS011;62699;50.534;12.784;2023-02-03T21:40:38;8.68;;;2.45;;
73893;SDS011;62699;50.534;12.784;2023-02-03T21:45:41;14.07;;;3.20;;
73893;SDS011;62699;50.534;12.784;2023-02-03T21:50:41;11.90;;;2.75;;
73893;SDS011;62699;50.534;12.784;2023-02-03T21:55:42;9.70;;;2.60;;
73893;SDS011;62699;50.534;12.784;2023-02-03T22:00:48;13.43;;;3.47;;
73893;SDS011;62699;50.534;12.784;2023-02-03T22:05:59;13.48;;;2.65;;
73893;SDS011;62699;50.534;12.784;2023-02-03T22:11:09;12.00;;;3.55;;
73893;SDS011;62699;50.534;12.784;2023-02-03T22:16:15;11.25;;;2.90;;
73893;SDS011;62699;50.534;12.784;2023-02-03T22:21:16;10.45;;;3.33;;
73893;SDS011;62699;50.534;12.784;2023-02-03T22:26:17;8.07;;;2.33;;
73893;SDS011;62699;50.534;12.784;2023-02-03T22:31:18;6.85;;;2.20;;
73893;SDS011;62699;50.534;12.784;2023-02-03T22:36:39;11.50;;;2.90;;
73893;SDS011;62699;50.534;12.784;2023-02-03T22:41:48;11.40;;;3.30;;
73893;SDS011;62699;50.534;12.784;2023-02-03T22:52:11;9.60;;;2.65;;
73893;SDS011;62699;50.534;12.784;2023-02-03T22:57:12;14.18;;;3.00;;
73893;SDS011;62699;50.534;12.784;2023-02-03T23:02:28;16.45;;;3.60;;
73893;SDS011;62699;50.534;12.784;2023-02-03T23:07:29;17.38;;;3.30;;
73893;SDS011;62699;50.534;12.784;2023-02-03T23:12:29;9.40;;;2.35;;
73893;SDS011;62699;50.534;12.784;2023-02-03T23:17:29;14.88;;;2.92;;
73893;SDS011;62699;50.534;12.784;2023-02-03T23:22:29;10.52;;;3.05;;
73893;SDS011;62699;50.534;12.784;2023-02-03T23:27:30;9.52;;;2.78;;
73893;SDS011;62699;50.534;12.784;2023-02-03T23:32:30;11.65;;;2.97;;
73893;SDS011;62699;50.534;12.784;2023-02-03T23:37:32;12.65;;;2.88;;
73893;SDS011;62699;50.534;12.784;2023-02-03T23:42:32;12.20;;;2.85;;
73893;SDS011;62699;50.534;12.784;2023-02-03T23:47:33;13.05;;;2.75;;
73893;SDS011;62699;50.534;12.784;2023-02-03T23:52:34;7.63;;;2.45;;
73893;SDS011;62699;50.534;12.784;2023-02-03T23:57:34;7.53;;;2.20;;
